Ana Sayfa
METAR-TAF:

METAR-TAF

Havaalanları :

Kano, Nijerya

Enlem: 12-03N, Boylam: 008-32E, yükseklik: 476 m

METAR: eksik

Saat: 04:45 (03:45 UTC)

Tahmin

Rapor saat 03:50 UTC de 23 saat ve 55 dakika önce yapıldı.
Ayın 23'si saat 06 UTC'den ayın 24'si saat 12 UTC'ye kadar geçerli Tahmin
Rüzgar güneybatıdan 12 kt
Görüş mesafesi 10 km veya daha fazla
1500 m altında bulut yok ve kümülonimbus yok
Olasılık 30% :
Geçici
ayın 23'si saat 16 UTC'den ayın 23'si saat 22 UTC'ye kadar
1500 ft yükseklikte parçalı bulutlu
2100 ft yükseklikte az bulutlu, Kümülonimbus.
gök gürültülü fırtına

TAF: DNKN 230350Z 2306/2412 23012KT CAVOK PROB30 TEMPO 2316/2322 TS SCT015 FEW021CB

4.000'den fazla havaalanı için hava durumu gözlemleri ve tahminleri (METAR ve TAF raporları).

Kullanılabilir istasyonlar harita üzerinde sarı ve kırmızı noktalarla gösterilir.

İstasyonun adını görmek için fareyi noktanın üzerinde gezdirin.

Sonrasında hava gözlem ve tahminlerini görmek için tıklayın.

Haritayı değiştirmek için: yaklaştırmak için siyah artı işaretli yeşil düğmeye ve uzaklaştırmak için de eksi işaretli düğmeye hızla tıklayın; bitişik haritalar için yeşil okları kullanın.


METAR-TAF: